createdAt,value
2018-08-18T00:00:23.052Z,97.00
2018-08-18T00:02:51.734Z,97.00
2018-08-18T00:05:21.027Z,97.00
2018-08-18T00:07:49.439Z,97.00
2018-08-18T00:10:19.419Z,97.00
2018-08-18T00:12:47.813Z,97.00
2018-08-18T00:15:16.205Z,97.00
2018-08-18T00:17:44.582Z,97.00
2018-08-18T00:20:15.913Z,97.00
2018-08-18T00:22:44.495Z,97.00
2018-08-18T00:25:13.324Z,97.00
2018-08-18T00:27:41.932Z,97.00
2018-08-18T00:30:16.084Z,97.00
2018-08-18T00:32:44.812Z,97.00
2018-08-18T00:35:13.227Z,97.00
2018-08-18T00:37:41.631Z,97.00
2018-08-18T00:40:11.175Z,97.00
2018-08-18T00:42:40.389Z,97.00
2018-08-18T00:45:12.188Z,97.00
2018-08-18T00:47:41.166Z,97.00
2018-08-18T00:50:10.438Z,97.00
2018-08-18T00:52:39.440Z,97.00
2018-08-18T00:55:08.662Z,97.00
2018-08-18T00:57:37.044Z,97.00
2018-08-18T01:00:06.409Z,97.00
2018-08-18T01:02:34.797Z,97.00
2018-08-18T01:05:03.258Z,97.00
2018-08-18T01:07:33.133Z,97.00
2018-08-18T01:10:02.631Z,97.00
2018-08-18T01:12:31.249Z,97.00
2018-08-18T01:15:07.136Z,97.00
2018-08-18T01:17:36.876Z,97.00
2018-08-18T01:20:07.424Z,97.00
2018-08-18T01:22:35.895Z,97.00
2018-08-18T01:25:05.116Z,97.00
2018-08-18T01:27:42.567Z,97.00
2018-08-18T01:30:11.575Z,97.00
2018-08-18T01:32:39.925Z,97.00
2018-08-18T01:35:11.187Z,97.00
2018-08-18T01:37:39.521Z,97.00
2018-08-18T01:40:07.916Z,97.00
2018-08-18T01:42:37.060Z,97.00
2018-08-18T01:45:05.700Z,97.00
2018-08-18T01:47:36.116Z,97.00
2018-08-18T01:50:10.092Z,97.00
2018-08-18T01:52:38.525Z,97.00
2018-08-18T01:55:07.713Z,97.00
2018-08-18T01:57:36.099Z,97.00
2018-08-18T02:00:31.018Z,97.00
2018-08-18T02:02:59.360Z,97.00
2018-08-18T02:05:27.736Z,97.00
2018-08-18T02:07:56.251Z,97.00
2018-08-18T02:10:24.645Z,97.00
2018-08-18T02:12:59.896Z,97.00
2018-08-18T02:15:28.546Z,97.00
2018-08-18T02:17:56.898Z,97.00
2018-08-18T02:20:25.282Z,97.00
2018-08-18T02:22:53.703Z,97.00
2018-08-18T02:25:22.107Z,97.00
2018-08-18T02:27:50.431Z,97.00
2018-08-18T02:30:20.961Z,97.00
2018-08-18T02:32:49.800Z,97.00
2018-08-18T02:35:18.169Z,97.00
2018-08-18T02:37:46.808Z,97.00
2018-08-18T02:40:16.804Z,97.00
2018-08-18T02:42:45.223Z,97.00
2018-08-18T02:45:17.089Z,97.00
2018-08-18T02:47:47.920Z,97.00
2018-08-18T02:50:16.922Z,97.00
2018-08-18T02:52:45.586Z,97.00
2018-08-18T02:55:14.353Z,97.00
2018-08-18T02:57:43.731Z,97.00
2018-08-18T03:00:23.695Z,97.00
2018-08-18T03:02:52.509Z,97.00
2018-08-18T03:05:20.891Z,97.00
2018-08-18T03:07:50.016Z,97.00
2018-08-18T03:10:25.538Z,97.00
2018-08-18T03:12:57.139Z,97.00
2018-08-18T03:16:04.988Z,97.00
2018-08-18T03:18:56.072Z,97.00
2018-08-18T03:21:30.693Z,97.00
2018-08-18T03:24:22.430Z,97.00
2018-08-18T03:26:53.836Z,97.00
2018-08-18T03:29:23.497Z,97.00
2018-08-18T03:31:52.211Z,97.00
2018-08-18T03:34:20.764Z,97.00
2018-08-18T03:36:51.628Z,97.00
2018-08-18T03:39:26.190Z,97.00
2018-08-18T03:41:59.849Z,97.00
2018-08-18T03:44:28.240Z,97.00
2018-08-18T03:46:56.709Z,97.00
2018-08-18T03:49:25.089Z,97.00
2018-08-18T03:51:54.639Z,97.00
2018-08-18T03:54:23.077Z,97.00
2018-08-18T03:56:51.712Z,97.00
2018-08-18T03:59:20.097Z,97.00
2018-08-18T04:01:58.129Z,97.00
2018-08-18T04:04:27.947Z,97.00
2018-08-18T04:06:57.520Z,97.00
2018-08-18T04:09:27.137Z,97.00
2018-08-18T04:11:57.353Z,97.00
2018-08-18T04:14:33.727Z,97.00
2018-08-18T04:17:02.108Z,97.00
2018-08-18T04:19:30.473Z,97.00
2018-08-18T04:21:58.895Z,97.00
2018-08-18T04:24:33.296Z,97.00
2018-08-18T04:27:02.094Z,97.00
2018-08-18T04:29:30.447Z,97.00
2018-08-18T04:31:59.002Z,97.00
2018-08-18T04:34:27.367Z,97.00
2018-08-18T04:36:55.765Z,97.00
2018-08-18T04:39:24.127Z,97.00
2018-08-18T04:41:52.572Z,97.00
2018-08-18T04:44:21.037Z,97.00
2018-08-18T04:46:50.255Z,97.00
2018-08-18T04:49:18.614Z,97.00
2018-08-18T04:51:46.978Z,97.00
2018-08-18T04:54:15.402Z,97.00
2018-08-18T04:56:43.826Z,97.00
2018-08-18T04:59:12.207Z,97.00
2018-08-18T05:01:41.324Z,97.00
2018-08-18T05:04:10.901Z,97.00
2018-08-18T05:06:40.700Z,97.00
2018-08-18T05:09:10.440Z,97.00
2018-08-18T05:11:38.865Z,97.00
2018-08-18T05:14:07.317Z,97.00
2018-08-18T05:16:35.800Z,97.00
2018-08-18T05:19:04.352Z,97.00
2018-08-18T05:21:32.760Z,97.00
2018-08-18T05:24:17.979Z,97.00
2018-08-18T05:26:46.408Z,97.00
2018-08-18T05:29:14.896Z,97.00
2018-08-18T05:31:43.264Z,97.00
2018-08-18T05:34:11.633Z,97.00
2018-08-18T05:36:39.995Z,97.00
2018-08-18T05:39:09.060Z,97.00
2018-08-18T05:41:37.405Z,97.00
2018-08-18T05:44:05.891Z,97.00
2018-08-18T05:46:34.344Z,97.00
2018-08-18T05:49:07.933Z,97.00
2018-08-18T05:51:40.863Z,97.00
2018-08-18T05:54:11.039Z,97.00
2018-08-18T05:56:41.020Z,97.00
2018-08-18T05:59:09.476Z,97.00
2018-08-18T06:01:39.283Z,97.00
2018-08-18T06:04:12.799Z,97.00
2018-08-18T06:06:41.892Z,97.00
2018-08-18T06:09:11.831Z,97.00
2018-08-18T06:11:40.198Z,97.00
2018-08-18T06:14:09.446Z,97.00
2018-08-18T06:16:37.818Z,97.00
2018-08-18T06:19:06.420Z,97.00
2018-08-18T06:21:34.763Z,97.00
2018-08-18T06:24:03.283Z,97.00
2018-08-18T06:26:31.776Z,97.00
2018-08-18T06:29:00.129Z,97.00
2018-08-18T06:31:28.548Z,96.50
2018-08-18T06:33:57.683Z,96.00
2018-08-18T06:36:26.168Z,94.90
2018-08-18T06:38:54.511Z,94.00
2018-08-18T06:41:23.087Z,93.10
2018-08-18T06:43:51.403Z,91.00
2018-08-18T06:46:19.743Z,90.20
2018-08-18T06:48:48.128Z,89.40
2018-08-18T06:51:16.493Z,88.60
2018-08-18T06:53:47.919Z,88.00
2018-08-18T06:56:16.368Z,86.90
2018-08-18T06:58:44.798Z,86.40
2018-08-18T07:01:13.155Z,86.10
2018-08-18T07:03:45.158Z,85.50
2018-08-18T07:06:14.341Z,84.70
2018-08-18T07:08:47.997Z,85.20
2018-08-18T07:11:16.924Z,85.70
2018-08-18T07:13:46.596Z,86.00
2018-08-18T07:16:15.116Z,85.10
2018-08-18T07:18:44.292Z,84.80
2018-08-18T07:21:12.654Z,84.00
2018-08-18T07:23:41.174Z,84.30
2018-08-18T07:26:09.589Z,84.50
2018-08-18T07:28:38.032Z,85.10
2018-08-18T07:31:06.346Z,85.40
2018-08-18T07:33:34.675Z,85.60
2018-08-18T07:36:03.076Z,85.50
2018-08-18T07:38:31.447Z,85.30
2018-08-18T07:40:59.826Z,85.20
2018-08-18T07:43:32.716Z,85.30
2018-08-18T07:46:02.671Z,84.90
2018-08-18T07:48:32.055Z,84.50
2018-08-18T07:51:00.503Z,84.20
2018-08-18T07:53:28.928Z,83.80
2018-08-18T07:55:57.307Z,83.90
2018-08-18T07:58:25.813Z,83.20
2018-08-18T08:00:56.618Z,82.90
2018-08-18T08:03:24.991Z,83.00
2018-08-18T08:05:53.367Z,83.10
2018-08-18T08:08:21.719Z,82.50
2018-08-18T08:10:50.178Z,82.40
2018-08-18T08:13:18.503Z,82.20
2018-08-18T08:15:46.865Z,82.10
2018-08-18T08:18:15.874Z,81.40
2018-08-18T08:20:44.310Z,80.70
2018-08-18T08:23:12.726Z,80.60
2018-08-18T08:25:41.118Z,80.40
2018-08-18T08:28:10.379Z,79.50
2018-08-18T08:30:38.816Z,79.60
2018-08-18T08:33:07.228Z,79.70
2018-08-18T08:35:37.439Z,78.90
2018-08-18T08:38:05.848Z,78.20
2018-08-18T08:40:34.308Z,79.10
2018-08-18T08:43:02.765Z,78.90
2018-08-18T08:45:31.547Z,79.10
2018-08-18T08:47:59.928Z,78.90
2018-08-18T08:50:28.428Z,78.00
2018-08-18T08:52:57.636Z,76.80
2018-08-18T08:55:27.206Z,77.50
2018-08-18T08:57:55.710Z,77.60
2018-08-18T09:00:24.042Z,77.50
2018-08-18T09:02:52.747Z,76.50
2018-08-18T09:05:21.304Z,76.60
2018-08-18T09:07:49.635Z,75.80
2018-08-18T09:10:18.322Z,75.10
2018-08-18T09:12:47.044Z,75.90
2018-08-18T09:15:16.559Z,76.20
2018-08-18T09:17:45.024Z,76.00
2018-08-18T09:20:18.688Z,74.40
2018-08-18T09:22:58.071Z,74.70
2018-08-18T09:25:27.276Z,75.20
2018-08-18T09:27:56.723Z,75.20
2018-08-18T09:30:26.763Z,75.10
2018-08-18T09:32:57.675Z,75.00
2018-08-18T09:35:26.024Z,75.00
2018-08-18T09:38:01.743Z,74.60
2018-08-18T09:40:31.830Z,74.40
2018-08-18T09:43:03.561Z,75.10
2018-08-18T09:45:31.986Z,75.30
2018-08-18T09:48:07.188Z,75.00
2018-08-18T09:50:35.545Z,74.90
2018-08-18T09:53:04.009Z,74.30
2018-08-18T09:55:32.388Z,74.00
2018-08-18T09:58:00.818Z,73.70
2018-08-18T10:00:35.678Z,73.50
2018-08-18T10:03:04.070Z,73.40
2018-08-18T10:05:32.445Z,72.90
2018-08-18T10:08:00.827Z,73.40
2018-08-18T10:10:29.414Z,71.80
2018-08-18T10:12:57.845Z,71.40
2018-08-18T10:15:26.370Z,71.00
2018-08-18T10:17:54.776Z,71.60
2018-08-18T10:20:23.154Z,71.50
2018-08-18T10:22:51.539Z,72.20
2018-08-18T10:25:19.952Z,73.00
2018-08-18T10:27:48.615Z,72.60
2018-08-18T10:30:16.985Z,72.80
2018-08-18T10:33:00.953Z,71.30
2018-08-18T10:35:33.185Z,71.00
2018-08-18T10:38:02.943Z,71.40
2018-08-18T10:40:32.415Z,71.60
2018-08-18T10:43:00.784Z,71.10
2018-08-18T10:45:29.215Z,71.50
2018-08-18T10:47:57.617Z,71.70
2018-08-18T10:51:45.801Z,71.50
2018-08-18T10:54:14.084Z,69.80
2018-08-18T10:56:42.474Z,69.30
2018-08-18T10:59:14.441Z,69.70
2018-08-18T11:01:57.086Z,69.50
2018-08-18T11:04:25.590Z,70.20
2018-08-18T11:06:54.207Z,69.50
2018-08-18T11:09:22.568Z,69.50
2018-08-18T11:11:51.026Z,69.00
2018-08-18T11:14:19.395Z,68.90
2018-08-18T11:16:47.853Z,68.90
2018-08-18T11:19:16.230Z,69.40
2018-08-18T11:21:44.846Z,69.20
2018-08-18T11:24:13.388Z,69.50
2018-08-18T11:26:41.772Z,69.10
2018-08-18T11:29:12.230Z,68.60
2018-08-18T11:31:40.635Z,68.80
2018-08-18T11:34:09.036Z,68.70
2018-08-18T11:36:39.103Z,69.20
2018-08-18T11:39:07.856Z,68.30
2018-08-18T11:41:36.193Z,67.30
2018-08-18T11:44:04.581Z,67.70
2018-08-18T11:46:37.150Z,68.10
2018-08-18T11:49:07.500Z,68.10
2018-08-18T11:51:43.104Z,67.40
2018-08-18T11:54:11.481Z,66.50
2018-08-18T11:56:45.344Z,67.00
2018-08-18T11:59:14.622Z,66.60
2018-08-18T12:01:46.575Z,66.30
2018-08-18T12:04:14.974Z,65.30
2018-08-18T12:06:58.845Z,66.20
2018-08-18T12:09:27.680Z,66.00
2018-08-18T12:11:56.167Z,66.20
2018-08-18T12:14:24.561Z,66.10
2018-08-18T12:16:53.020Z,65.50
2018-08-18T12:19:21.368Z,66.10
2018-08-18T12:21:49.704Z,66.30
2018-08-18T12:24:19.644Z,65.30
2018-08-18T12:26:59.144Z,65.00
2018-08-18T12:29:29.930Z,65.20
2018-08-18T12:31:58.449Z,64.80
2018-08-18T12:37:17.207Z,64.50
2018-08-18T12:39:45.598Z,63.70
2018-08-18T12:42:18.175Z,63.60
2018-08-18T12:44:46.547Z,63.30
2018-08-18T12:47:14.869Z,64.10
2018-08-18T12:49:43.275Z,63.90
2018-08-18T12:52:11.628Z,64.20
2018-08-18T12:54:40.014Z,64.30
2018-08-18T12:57:08.488Z,63.60
2018-08-18T12:59:37.276Z,63.60
2018-08-18T13:02:05.672Z,63.70
2018-08-18T13:04:34.074Z,64.70
2018-08-18T13:07:02.432Z,64.00
2018-08-18T13:09:30.835Z,64.20
2018-08-18T13:12:01.048Z,62.90
2018-08-18T13:14:30.681Z,62.80
2018-08-18T13:16:58.982Z,62.10
2018-08-18T13:19:30.528Z,62.40
2018-08-18T13:21:58.884Z,62.70
2018-08-18T13:24:29.855Z,62.50
2018-08-18T13:26:59.600Z,62.30
2018-08-18T13:29:28.035Z,61.20
2018-08-18T13:31:56.443Z,61.00
2018-08-18T13:34:25.228Z,61.30
2018-08-18T13:36:53.594Z,61.30
2018-08-18T13:39:22.147Z,61.70
2018-08-18T13:41:51.199Z,61.80
2018-08-18T13:44:28.238Z,61.30
2018-08-18T13:46:58.006Z,62.10
2018-08-18T13:49:27.848Z,62.10
2018-08-18T13:51:56.987Z,63.20
2018-08-18T13:54:26.119Z,63.90
2018-08-18T13:56:54.570Z,63.60
2018-08-18T13:59:46.650Z,62.90
2018-08-18T14:02:15.087Z,62.90
2018-08-18T14:04:44.114Z,62.50
2018-08-18T14:07:13.028Z,62.10
2018-08-18T14:09:47.389Z,61.70
2018-08-18T14:12:17.055Z,60.90
2018-08-18T14:14:46.157Z,60.30
2018-08-18T14:17:15.353Z,60.30
2018-08-18T14:19:43.769Z,60.00
2018-08-18T14:22:12.290Z,59.80
2018-08-18T14:24:42.110Z,59.00
2018-08-18T14:27:13.399Z,58.70
2018-08-18T14:29:43.133Z,58.40
2018-08-18T14:32:16.910Z,58.90
2018-08-18T14:34:51.888Z,59.60
2018-08-18T14:37:21.288Z,58.70
2018-08-18T14:39:49.702Z,58.90
2018-08-18T14:42:18.056Z,58.70
2018-08-18T14:44:46.504Z,58.60
2018-08-18T14:47:14.824Z,59.20
2018-08-18T14:49:43.222Z,58.90
2018-08-18T14:52:11.599Z,59.10
2018-08-18T14:54:39.950Z,59.30
2018-08-18T14:57:08.376Z,59.40
2018-08-18T14:59:37.790Z,59.70
2018-08-18T15:02:07.604Z,59.80
2018-08-18T15:07:17.184Z,59.80
2018-08-18T15:09:46.044Z,59.10
2018-08-18T15:12:14.654Z,58.40
2018-08-18T15:14:42.979Z,58.90
2018-08-18T15:17:12.213Z,59.00
2018-08-18T15:19:40.622Z,58.60
2018-08-18T15:22:10.509Z,59.20
2018-08-18T15:24:39.187Z,59.00
2018-08-18T15:27:07.770Z,58.10
2018-08-18T15:29:36.302Z,58.10
2018-08-18T15:32:04.847Z,58.70
2018-08-18T15:34:33.228Z,59.30
2018-08-18T15:37:02.611Z,59.80
2018-08-18T15:39:30.961Z,60.00
2018-08-18T15:42:00.529Z,61.30
2018-08-18T15:44:28.898Z,61.40
2018-08-18T15:46:57.898Z,60.80
2018-08-18T15:49:26.216Z,60.70
2018-08-18T15:51:54.949Z,60.20
2018-08-18T15:54:23.520Z,60.30
2018-08-18T15:56:51.842Z,61.40
2018-08-18T15:59:20.249Z,61.50
2018-08-18T16:01:48.655Z,61.60
2018-08-18T16:04:17.267Z,61.20
2018-08-18T16:06:45.665Z,61.00
2018-08-18T16:09:14.024Z,61.50
2018-08-18T16:11:42.415Z,61.30
2018-08-18T16:14:10.792Z,61.80
2018-08-18T16:16:54.719Z,61.80
2018-08-18T16:19:23.151Z,62.10
2018-08-18T16:21:52.845Z,62.80
2018-08-18T16:24:31.651Z,64.10
2018-08-18T16:27:01.677Z,64.40
2018-08-18T16:29:30.490Z,64.50
2018-08-18T16:32:12.042Z,64.60
2018-08-18T16:34:40.682Z,64.50
2018-08-18T16:37:09.261Z,64.90
2018-08-18T16:39:37.611Z,65.10
2018-08-18T16:42:06.124Z,65.50
2018-08-18T16:44:34.500Z,65.90
2018-08-18T16:47:04.777Z,65.80
2018-08-18T16:49:33.327Z,65.60
2018-08-18T16:52:01.756Z,65.70
2018-08-18T16:54:31.816Z,66.10
2018-08-18T16:57:00.240Z,65.90
2018-08-18T16:59:29.138Z,66.00
2018-08-18T17:01:57.612Z,66.20
2018-08-18T17:04:30.808Z,67.10
2018-08-18T17:06:59.592Z,67.40
2018-08-18T17:09:37.097Z,67.40
2018-08-18T17:12:14.153Z,67.60
2018-08-18T17:14:42.718Z,67.80
2018-08-18T17:17:12.017Z,68.30
2018-08-18T17:19:40.573Z,68.80
2018-08-18T17:22:10.073Z,69.30
2018-08-18T17:24:38.515Z,69.60
2018-08-18T17:27:06.922Z,69.50
2018-08-18T17:29:37.284Z,69.70
2018-08-18T17:32:05.974Z,69.70
2018-08-18T17:34:34.488Z,69.60
2018-08-18T17:37:03.298Z,69.80
2018-08-18T17:39:34.687Z,70.10
2018-08-18T17:42:03.125Z,70.50
2018-08-18T17:44:31.655Z,71.20
2018-08-18T17:47:07.459Z,71.60
2018-08-18T17:49:46.261Z,71.90
2018-08-18T17:52:15.671Z,72.00
2018-08-18T17:54:53.587Z,72.40
2018-08-18T17:57:21.983Z,72.70
2018-08-18T17:59:50.388Z,72.80
2018-08-18T18:02:18.789Z,72.80
2018-08-18T18:04:51.482Z,73.10
2018-08-18T18:07:20.061Z,73.50
2018-08-18T18:09:48.506Z,73.70
2018-08-18T18:12:21.996Z,74.20
2018-08-18T18:14:56.722Z,74.30
2018-08-18T18:17:25.567Z,74.20
2018-08-18T18:19:56.309Z,74.60
2018-08-18T18:22:25.209Z,74.70
2018-08-18T18:24:53.595Z,74.80
2018-08-18T18:27:22.000Z,75.00
2018-08-18T18:29:50.366Z,75.60
2018-08-18T18:32:18.891Z,76.40
2018-08-18T18:34:47.667Z,76.50
2018-08-18T18:37:16.264Z,76.80
2018-08-18T18:39:55.398Z,77.20
2018-08-18T18:42:24.316Z,77.80
2018-08-18T18:44:52.717Z,78.00
2018-08-18T18:47:21.139Z,78.40
2018-08-18T18:49:49.512Z,78.70
2018-08-18T18:52:17.960Z,78.90
2018-08-18T18:54:46.350Z,79.10
2018-08-18T18:57:14.965Z,79.50
2018-08-18T18:59:47.552Z,80.40
2018-08-18T19:02:16.200Z,80.60
2018-08-18T19:04:44.550Z,80.80
2018-08-18T19:07:13.004Z,80.40
2018-08-18T19:09:41.441Z,80.30
2018-08-18T19:12:09.853Z,80.70
2018-08-18T19:14:38.249Z,80.80
2018-08-18T19:17:06.644Z,81.20
2018-08-18T19:19:34.980Z,81.60
2018-08-18T19:22:07.047Z,82.00
2018-08-18T19:24:35.519Z,82.30
2018-08-18T19:27:04.190Z,82.50
2018-08-18T19:29:32.764Z,82.80
2018-08-18T19:32:01.538Z,83.20
2018-08-18T19:37:09.179Z,83.50
2018-08-18T19:39:38.229Z,83.70
2018-08-18T19:42:12.246Z,84.10
2018-08-18T19:44:43.961Z,84.40
2018-08-18T19:47:12.742Z,85.10
2018-08-18T19:49:45.961Z,85.90
2018-08-18T19:52:15.527Z,86.30
2018-08-18T19:55:47.299Z,86.50
2018-08-18T19:58:15.851Z,87.10
2018-08-18T20:00:44.224Z,87.40
2018-08-18T20:03:13.820Z,87.60
2018-08-18T20:05:42.651Z,87.80
2018-08-18T20:08:11.227Z,87.90
2018-08-18T20:10:45.555Z,88.90
2018-08-18T20:13:14.989Z,88.90
2018-08-18T20:15:46.386Z,89.10
2018-08-18T20:18:14.943Z,89.30
2018-08-18T20:20:43.394Z,89.80
2018-08-18T20:23:13.413Z,89.70
2018-08-18T20:25:42.975Z,90.00
2018-08-18T20:28:11.423Z,90.30
2018-08-18T20:30:39.969Z,90.50
2018-08-18T20:33:08.531Z,90.80
2018-08-18T20:35:37.104Z,91.00
2018-08-18T20:38:05.731Z,91.30
2018-08-18T20:40:34.325Z,91.60
2018-08-18T20:43:02.812Z,91.90
2018-08-18T20:45:36.597Z,92.50
2018-08-18T20:48:06.104Z,92.50
2018-08-18T20:50:34.507Z,92.90
2018-08-18T20:53:08.136Z,93.00
2018-08-18T20:55:36.595Z,93.20
2018-08-18T20:58:05.104Z,94.20
2018-08-18T21:00:33.478Z,94.40
2018-08-18T21:03:01.853Z,94.50
2018-08-18T21:05:30.234Z,95.00
2018-08-18T21:08:04.267Z,95.00
2018-08-18T21:10:32.901Z,95.30
2018-08-18T21:13:01.320Z,95.70
2018-08-18T21:15:29.655Z,95.70
2018-08-18T21:17:58.831Z,96.10
2018-08-18T21:20:27.158Z,96.50
2018-08-18T21:22:55.543Z,96.60
2018-08-18T21:25:34.227Z,96.30
2018-08-18T21:28:02.570Z,96.50
2018-08-18T21:30:30.948Z,96.50
2018-08-18T21:32:59.287Z,97.00
2018-08-18T21:35:27.687Z,97.00
2018-08-18T21:37:56.028Z,97.00
2018-08-18T21:40:24.405Z,97.00
2018-08-18T21:42:52.760Z,97.00
2018-08-18T21:45:21.211Z,97.00
2018-08-18T21:47:49.582Z,97.00
2018-08-18T21:50:18.338Z,97.00
2018-08-18T21:52:46.846Z,97.00
2018-08-18T21:55:15.261Z,97.00
2018-08-18T21:57:55.143Z,97.00
2018-08-18T22:00:27.755Z,97.00
2018-08-18T22:02:58.027Z,97.00
2018-08-18T22:05:30.286Z,97.00
2018-08-18T22:07:59.019Z,97.00
2018-08-18T22:10:27.551Z,97.00
2018-08-18T22:12:55.981Z,97.00
2018-08-18T22:15:24.333Z,97.00
2018-08-18T22:17:53.198Z,97.00
2018-08-18T22:20:22.468Z,97.00
2018-08-18T22:22:50.969Z,97.00
2018-08-18T22:25:19.400Z,97.00
2018-08-18T22:27:51.789Z,97.00
2018-08-18T22:30:20.282Z,97.00
2018-08-18T22:32:48.711Z,97.00
2018-08-18T22:35:17.060Z,97.00
2018-08-18T22:37:45.445Z,97.00
2018-08-18T22:40:13.828Z,97.00
2018-08-18T22:42:42.147Z,97.00
2018-08-18T22:45:26.995Z,97.00
2018-08-18T22:47:55.363Z,97.00
2018-08-18T22:50:23.764Z,97.00
2018-08-18T22:52:53.236Z,97.00
2018-08-18T22:55:21.612Z,97.00
2018-08-18T22:57:54.376Z,97.00
2018-08-18T23:00:23.303Z,97.00
2018-08-18T23:02:51.739Z,97.00
2018-08-18T23:05:20.710Z,97.00
2018-08-18T23:07:50.636Z,97.00
2018-08-18T23:10:19.007Z,97.00
2018-08-18T23:12:47.377Z,97.00
2018-08-18T23:15:19.154Z,97.00
2018-08-18T23:17:48.052Z,97.00
2018-08-18T23:20:17.190Z,97.00
2018-08-18T23:23:03.267Z,97.00
2018-08-18T23:25:32.984Z,97.00
2018-08-18T23:28:01.364Z,97.00
2018-08-18T23:30:39.373Z,97.00
2018-08-18T23:33:09.714Z,97.00
2018-08-18T23:35:38.072Z,97.00
2018-08-18T23:38:06.536Z,97.00
2018-08-18T23:40:34.881Z,97.00
2018-08-18T23:43:04.704Z,97.00
2018-08-18T23:45:48.284Z,97.00
2018-08-18T23:48:16.703Z,97.00
2018-08-18T23:50:48.045Z,97.00
2018-08-18T23:53:18.659Z,97.00
2018-08-18T23:55:53.155Z,97.00
2018-08-18T23:58:24.174Z,97.00
